Flight Track Log - Related Links

Times and Time Zones

All times are in EDT time to prevent confusion due to time zone crossing. See the SWA3450 flight status page for this flight to view local times or setup timezone preferences in your user account.


Time Position Orientation Groundspeed Altitude Reporting Facility
EDT Latitude Longitude Course Direction KTS MPH feet Rate Location/Type
Sun 09:27:09 PM 33.4333 -112.0333 248° West 164 189 2,000  Level Phoenix TRACON
Sun 09:28:03 PM 33.4167 -112.0833 248° West 203 234 3,500 2,111 Climbing Phoenix TRACON
Sun 09:28:57 PM 33.4000 -112.1500 253° West 243 280 5,800 2,850 Climbing Phoenix TRACON
Sun 09:30:03 PM 33.3333 -112.1667 192° South 271 312 9,200 2,847 Climbing Phoenix TRACON
Sun 09:31:14 PM 33.3442 -112.0644 83° East 280 322 12,300 2,818 Climbing Albuquerque Center
Sun 09:32:15 PM 33.3681 -111.9603 75° East 304 350 15,400 2,213 Climbing Albuquerque Center
Sun 09:33:16 PM 33.3914 -111.8608 74° East 339 390 16,800 2,213 Climbing Albuquerque Center
Sun 09:34:17 PM 33.4189 -111.7403 75° East 375 432 19,900 2,902 Climbing Albuquerque Center
Sun 09:35:18 PM 33.4531 -111.5936 74° East 380 437 22,700 2,361 Climbing Albuquerque Center
Sun 09:36:19 PM 33.4828 -111.4636 75° East 404 465 24,700 1,820 Climbing Albuquerque Center
Sun 09:37:20 PM 33.5092 -111.3247 77° East 428 493 26,400 1,770 Climbing Albuquerque Center
Sun 09:38:21 PM 33.5244 -111.1792 83° East 439 505 28,300 1,770 Climbing Albuquerque Center
Sun 09:39:22 PM 33.5403 -111.0314 83° East 447 514 30,000 1,672 Climbing Albuquerque Center
Sun 09:40:23 PM 33.5606 -110.8808 81° East 455 524 31,700 1,525 Climbing Albuquerque Center
Sun 09:41:24 PM 33.6044 -110.7428 69° East 449 517 33,100 1,525 Climbing Albuquerque Center
Sun 09:42:25 PM 33.6492 -110.6044 69° East 449 517 34,800 1,672 Climbing Albuquerque Center
Sun 09:43:26 PM 33.6928 -110.4714 68° East 442 509 36,500 1,426 Climbing Albuquerque Center
Sun 09:44:27 PM 33.7344 -110.3408 69° East 432 497 37,700 885 Climbing Albuquerque Center
Sun 09:45:28 PM 33.7856 -110.1800 69° East 430 495 38,300 541 Climbing Albuquerque Center
Sun 09:46:29 PM 33.8297 -110.0436 69° East 430 495 38,800 344 Climbing Albuquerque Center
Sun 09:47:30 PM 33.8739 -109.9053 69° East 435 501 39,000 98 Climbing Albuquerque Center
Sun 09:48:31 PM 33.9183 -109.7639 69° East 445 512 39,000  Level Albuquerque Center
Sun 09:49:32 PM 33.9631 -109.6211 69° East 451 519 39,000  Level Albuquerque Center
Sun 09:50:33 PM 34.0078 -109.4786 69° East 452 520 39,000  Level Albuquerque Center
Sun 09:51:34 PM 34.0519 -109.3364 69° East 452 520 39,000  Level Albuquerque Center
Sun 09:52:35 PM 34.0958 -109.1950 69° East 452 520 39,000  Level Albuquerque Center
Sun 09:53:36 PM 34.1403 -109.0500 70° East 452 520 39,000  Level Albuquerque Center
Sun 09:54:37 PM 34.1894 -108.8892 70° East 452 520 39,000  Level Albuquerque Center
Sun 09:55:38 PM 34.2283 -108.7647 69° East 453 521 39,000  Level Albuquerque Center
Sun 09:56:39 PM 34.2708 -108.6236 70° East 453 521 39,000  Level Albuquerque Center
Sun 09:57:40 PM 34.3192 -108.4650 70° East 443 510 39,000  Level Albuquerque Center
Sun 09:58:40 PM 34.3594 -108.3333 70° East 437 503 39,000  Level Albuquerque Center
Sun 09:59:41 PM 34.4011 -108.1944 70° East 437 503 39,000  Level Albuquerque Center
Sun 10:00:42 PM 34.4175 -108.0481 82° East 451 519 39,000  Level Albuquerque Center
Sun 10:01:43 PM 34.4161 -107.8967 91° East 455 524 39,000  Level Albuquerque Center
Sun 10:02:44 PM 34.4133 -107.7447 91° East 454 522 39,000  Level Albuquerque Center
Sun 10:03:45 PM 34.4100 -107.5928 91° East 454 522 39,000  Level Albuquerque Center
Sun 10:04:46 PM 34.4086 -107.4425 91° East 454 522 39,000  Level Albuquerque Center
Sun 10:05:47 PM 34.4058 -107.2911 91° East 454 522 39,000  Level Albuquerque Center
Sun 10:06:48 PM 34.4044 -107.1169 91° East 453 521 39,000  Level Albuquerque Center
Sun 10:07:49 PM 34.4006 -106.9517 92° East 453 521 39,000  Level Albuquerque Center
Sun 10:08:50 PM 34.3967 -106.7978 92° East 455 524 39,000  Level Albuquerque Center
Sun 10:09:51 PM 34.4169 -106.6481 81° East 458 527 39,000  Level Albuquerque Center
Sun 10:10:52 PM 34.4747 -106.5164 62° Northeast 462 532 39,000  Level Albuquerque Center
Sun 10:11:53 PM 34.5344 -106.3781 62° Northeast 466 536 39,000  Level Albuquerque Center
Sun 10:12:54 PM 34.6014 -106.2286 61° Northeast 465 535 39,000  Level Albuquerque Center
Sun 10:13:55 PM 34.6608 -106.0875 63° Northeast 467 537 39,000  Level Albuquerque Center
Sun 10:14:56 PM 34.7208 -105.9486 62° Northeast 467 537 39,000  Level Albuquerque Center
Sun 10:15:57 PM 34.7803 -105.8161 61° Northeast 459 528 39,000  Level Albuquerque Center
Sun 10:16:58 PM 34.8403 -105.6769 62° Northeast 459 528 39,000  Level Albuquerque Center
Sun 10:17:58 PM 34.8997 -105.5369 63° Northeast 459 528 39,000  Level Albuquerque Center
Sun 10:18:59 PM 34.9603 -105.3950 62° Northeast 464 534 39,000  Level Albuquerque Center
Sun 10:20:00 PM 35.0197 -105.2536 63° Northeast 464 534 39,000  Level Albuquerque Center
Sun 10:21:01 PM 35.0803 -105.1114 62° Northeast 464 534 39,000  Level Albuquerque Center
Sun 10:22:02 PM 35.1436 -104.9717 61° Northeast 464 534 39,000  Level Albuquerque Center
Sun 10:23:03 PM 35.2144 -104.8339 58° Northeast 468 539 39,000  Level Albuquerque Center
Sun 10:24:04 PM 35.2836 -104.6953 59° Northeast 470 541 39,000  Level Albuquerque Center
Sun 10:25:05 PM 35.3531 -104.5567 58° Northeast 470 541 39,000  Level Albuquerque Center
Sun 10:26:06 PM 35.4225 -104.4169 59° Northeast 470 541 39,000  Level Albuquerque Center
Sun 10:27:07 PM 35.4931 -104.2761 58° Northeast 471 542 39,000  Level Albuquerque Center
Sun 10:28:07 PM 35.5622 -104.1350 59° Northeast 471 542 39,000  Level Albuquerque Center
Sun 10:29:08 PM 35.6319 -103.9936 59° Northeast 473 544 39,000  Level Albuquerque Center
Sun 10:30:09 PM 35.7000 -103.8514 59° Northeast 474 545 39,000  Level Albuquerque Center
Sun 10:31:10 PM 35.7683 -103.7114 59° Northeast 474 545 39,000  Level Albuquerque Center
Sun 10:32:11 PM 35.8361 -103.5722 59° Northeast 473 544 39,000  Level Albuquerque Center
Sun 10:33:12 PM 35.9014 -103.4347 60° Northeast 466 536 39,000  Level Albuquerque Center
Sun 10:34:13 PM 35.9692 -103.2953 59° Northeast 467 537 39,000  Level Albuquerque Center
Sun 10:35:14 PM 36.0369 -103.1547 59° Northeast 468 539 39,000  Level Albuquerque Center
Sun 10:36:15 PM 36.1047 -103.0125 59° Northeast 471 542 39,000  Level Albuquerque Center
Sun 10:37:16 PM 36.1786 -102.8561 60° Northeast 476 548 39,000  Level Albuquerque Center
Sun 10:38:16 PM 36.2436 -102.7136 60° Northeast 476 548 39,000  Level Albuquerque Center
Sun 10:39:17 PM 36.3119 -102.5719 59° Northeast 476 548 39,000  Level Albuquerque Center
Sun 10:40:18 PM 36.3783 -102.4283 60° Northeast 477 549 39,000  Level Albuquerque Center
Sun 10:41:19 PM 36.4472 -102.2878 59° Northeast 477 549 39,000  Level Albuquerque Center
Sun 10:42:20 PM 36.5486 -102.1789 41° Northeast 482 555 39,000  Level Albuquerque Center
Sun 10:43:21 PM 36.6508 -102.0686 41° Northeast 484 557 39,000  Level Albuquerque Center
Sun 10:44:22 PM 36.7633 -101.9442 42° Northeast 484 557 39,000  Level Albuquerque Center
Sun 10:45:23 PM 36.8592 -101.8358 42° Northeast 484 557 39,000  Level Albuquerque Center
Sun 10:46:24 PM 36.9578 -101.7286 41° Northeast 486 559 39,000  Level Albuquerque Center
Sun 10:47:24 PM 37.0742 -101.6064 40° Northeast 487 560 39,000  Level Albuquerque Center
Sun 10:48:24 PM 37.1628 -101.4903 46° Northeast 485 558 39,000  Level Kansas City Center
Sun 10:49:23 PM 37.2442 -101.3681 50° Northeast 481 554 39,000  Level Kansas City Center
Sun 10:50:24 PM 37.2853 -101.2228 70° East 467 537 39,000  Level Kansas City Center
Sun 10:51:24 PM 37.3214 -101.0536 75° East 457 526 39,000  Level Kansas City Center
Sun 10:52:24 PM 37.3533 -100.9094 74° East 456 525 39,000  Level Kansas City Center
Sun 10:53:25 PM 37.3900 -100.7400 75° East 456 525 39,000  Level Kansas City Center
Sun 10:54:29 PM 37.4217 -100.5956 75° East 455 524 39,000  Level Kansas City Center
Sun 10:55:29 PM 37.4528 -100.4517 75° East 453 521 39,000  Level Kansas City Center
Sun 10:56:30 PM 37.4894 -100.2850 74° East 450 518 39,000  Level Kansas City Center
Sun 10:57:31 PM 37.5183 -100.1425 76° East 447 514 39,000  Level Kansas City Center
Sun 10:58:32 PM 37.5492 -99.9986 75° East 444 511 39,000  Level Kansas City Center
Sun 10:59:31 PM 37.5853 -99.8283 75° East 448 516 39,000  Level Kansas City Center
Sun 11:00:33 PM 37.6153 -99.6819 75° East 449 517 39,000  Level Kansas City Center
Sun 11:01:34 PM 37.6456 -99.5408 75° East 443 510 39,000  Level Kansas City Center
Sun 11:02:32 PM 37.6781 -99.3875 75° East 437 503 39,000  Level Kansas City Center
Sun 11:03:35 PM 37.7075 -99.2381 76° East 437 503 39,000  Level Kansas City Center
Sun 11:04:35 PM 37.7378 -99.0886 76° East 438 504 39,000  Level Kansas City Center
Sun 11:05:36 PM 37.7681 -98.9386 76° East 439 505 39,000  Level Kansas City Center
Sun 11:06:34 PM 37.7972 -98.7889 76° East 439 505 39,000  Level Kansas City Center
Sun 11:07:36 PM 37.8261 -98.6397 76° East 439 505 39,000  Level Kansas City Center
Sun 11:08:38 PM 37.8553 -98.4908 76° East 439 505 39,000  Level Kansas City Center
Sun 11:09:38 PM 37.8853 -98.3419 76° East 437 503 39,000  Level Kansas City Center
Sun 11:10:37 PM 37.9150 -98.1906 76° East 439 505 39,000  Level Kansas City Center
Sun 11:11:39 PM 37.9503 -98.0128 76° East 443 510 39,000  Level Kansas City Center
Sun 11:12:40 PM 37.9775 -97.8581 77° East 444 511 39,000  Level Kansas City Center
Sun 11:13:40 PM 38.0056 -97.7150 76° East 457 526 39,000  Level Kansas City Center
Sun 11:14:42 PM 38.0353 -97.5594 76° East 457 526 39,000  Level Kansas City Center
Sun 11:15:41 PM 38.0619 -97.4022 78° East 451 519 39,000  Level Kansas City Center
Sun 11:16:43 PM 38.0903 -97.2467 77° East 451 519 39,000  Level Kansas City Center
Sun 11:17:44 PM 38.1189 -97.0894 77° East 454 522 39,000  Level Kansas City Center
Sun 11:18:45 PM 38.1564 -96.9333 73° East 464 534 39,000 -50 Level Kansas City Center
Sun 11:19:45 PM 38.2208 -96.7919 60° Northeast 465 535 38,900 -1,091 Descending Kansas City Center
Sun 11:20:46 PM 38.2847 -96.6539 59° Northeast 457 526 36,800 -2,600 Descending Kansas City Center
Sun 11:21:45 PM 38.3600 -96.4867 60° Northeast 456 525 33,700 -2,500 Descending Kansas City Center
Sun 11:22:46 PM 38.4169 -96.3628 60° Northeast 454 522 31,800 -2,000 Descending Kansas City Center
Sun 11:23:48 PM 38.4786 -96.2258 60° Northeast 450 518 29,600 -2,066 Descending Kansas City Center
Sun 11:24:48 PM 38.5394 -96.0931 60° Northeast 441 507 27,600 -2,033 Descending Kansas City Center
Sun 11:25:49 PM 38.5975 -95.9622 60° Northeast 428 493 25,500 -1,967 Descending Kansas City Center
Sun 11:26:50 PM 38.6544 -95.8333 60° Northeast 424 488 23,600 -2,083 Descending Kansas City Center
Sun 11:27:50 PM 38.7100 -95.7081 60° Northeast 411 473 21,300 -2,430 Descending Kansas City Center
Sun 11:28:51 PM 38.7786 -95.5906 53° Northeast 412 474 18,700 -2,579 Descending Kansas City Center
Sun 11:29:51 PM 38.8600 -95.4492 53° Northeast 413 475 16,100 -2,380 Descending Kansas City Center
Sun 11:30:52 PM 38.9231 -95.3378 54° Northeast 392 451 13,900 -1,918 Descending Kansas City Center
Sun 11:31:53 PM 38.9853 -95.2303 53° Northeast 382 440 12,200 -1,119 Descending Kansas City Center
Sun 11:32:50 PM 39.0408 -95.1378 52° Northeast 334 384 11,700 -950 Descending Kansas City Center
Sun 11:33:53 PM 39.1150 -95.0775 32° Northeast 322 371 10,300 -1,366 Descending Kansas City Center
Sun 11:34:53 PM 39.1867 -95.0194 32° Northeast 314 361 8,900 -1,377 Descending Kansas City Center
Sun 11:35:55 PM 39.2581 -94.9619 32° Northeast 310 357 7,500 -1,082 Descending Kansas City Center
Sun 11:36:55 PM 39.3242 -94.9064 33° Northeast 288 331 6,700 -1,311 Descending Kansas City Center
Sun 11:37:54 PM 39.3833 -94.8486 37° Northeast 273 314 4,900 -1,513 Descending Kansas City Center
Sun 11:38:54 PM 39.4183 -94.7747 58° Northeast 248 285 3,700 -992 Descending Kansas City Center
Sun 11:39:55 PM 39.4058 -94.7019 103° East 206 237 2,900 -634 Descending Kansas City Center
Sun 11:40:57 PM 39.3764 -94.6794 149° Southeast 151 174 2,400 -585 Descending Kansas City Center
Sun 11:41:58 PM 39.3397 -94.6914 194° South 138 159 1,700 -700 Descending Kansas City Center
Sun 11:42:57 PM 39.3025 -94.7028 193° South 132 152 1,000 -712 Descending Kansas City Center

Login

Don't have an account? Register now (free) for customized features, flight alerts, and more!